createdAt,value
2018-03-26T00:00:05.859Z,50.93
2018-03-26T00:02:33.298Z,47.93
2018-03-26T00:05:00.716Z,48.97
2018-03-26T00:07:28.145Z,53.40
2018-03-26T00:09:55.561Z,51.73
2018-03-26T00:12:23.044Z,51.00
2018-03-26T00:14:51.250Z,55.80
2018-03-26T00:17:18.666Z,52.50
2018-03-26T00:19:46.191Z,51.50
2018-03-26T00:22:13.612Z,52.50
2018-03-26T00:24:41.023Z,50.13
2018-03-26T00:27:08.459Z,52.17
2018-03-26T00:29:35.901Z,51.57
2018-03-26T00:32:03.343Z,48.10
2018-03-26T00:34:30.770Z,54.20
2018-03-26T00:36:58.987Z,53.07
2018-03-26T00:39:26.446Z,53.80
2018-03-26T00:41:53.857Z,52.20
2018-03-26T00:44:21.278Z,50.07
2018-03-26T00:46:48.698Z,52.87
2018-03-26T00:49:16.111Z,51.10
2018-03-26T00:51:43.530Z,56.23
2018-03-26T00:54:10.954Z,51.70
2018-03-26T00:56:38.408Z,53.17
2018-03-26T00:59:06.598Z,55.20
2018-03-26T01:01:34.082Z,52.67
2018-03-26T01:04:01.558Z,56.00
2018-03-26T01:06:28.979Z,55.73
2018-03-26T01:08:56.402Z,62.27
2018-03-26T01:11:23.828Z,56.30
2018-03-26T01:13:52.011Z,54.63
2018-03-26T01:16:20.210Z,57.93
2018-03-26T01:18:48.406Z,63.50
2018-03-26T01:21:15.826Z,61.47
2018-03-26T01:23:44.158Z,62.40
2018-03-26T01:26:13.256Z,61.23
2018-03-26T01:28:41.473Z,75.00
2018-03-26T01:31:08.934Z,65.00
2018-03-26T01:33:36.362Z,58.77
2018-03-26T01:36:03.800Z,60.80
2018-03-26T01:38:31.341Z,60.97
2018-03-26T01:40:58.765Z,58.27
2018-03-26T01:43:26.185Z,65.20
2018-03-26T01:45:53.611Z,59.13
2018-03-26T01:48:21.826Z,59.63
2018-03-26T01:50:49.240Z,62.27
2018-03-26T01:53:16.646Z,61.70
2018-03-26T01:55:44.846Z,60.87
2018-03-26T01:58:12.320Z,64.03
2018-03-26T02:00:39.739Z,67.47
2018-03-26T02:03:07.952Z,72.70
2018-03-26T02:05:36.152Z,69.20
2018-03-26T02:08:03.633Z,76.23
2018-03-26T02:10:31.106Z,77.70
2018-03-26T02:12:58.518Z,79.33
2018-03-26T02:15:26.030Z,84.33
2018-03-26T02:17:53.469Z,80.50
2018-03-26T02:20:20.888Z,85.00
2018-03-26T02:22:48.339Z,87.30
2018-03-26T02:25:15.752Z,83.57
2018-03-26T02:27:43.180Z,88.73
2018-03-26T02:30:10.753Z,91.63
2018-03-26T02:32:38.917Z,89.80
2018-03-26T02:35:07.116Z,95.70
2018-03-26T02:37:34.721Z,92.73
2018-03-26T02:40:02.161Z,90.00
2018-03-26T02:42:29.627Z,101.57
2018-03-26T02:44:57.104Z,88.70
2018-03-26T02:47:24.522Z,89.03
2018-03-26T02:49:52.038Z,84.90
2018-03-26T02:52:19.446Z,92.10
2018-03-26T02:54:46.868Z,89.93
2018-03-26T02:57:15.531Z,92.03
2018-03-26T02:59:42.951Z,86.33
2018-03-26T03:02:10.403Z,92.50
2018-03-26T03:04:37.813Z,90.87
2018-03-26T03:07:05.240Z,88.10
2018-03-26T03:09:32.698Z,88.00
2018-03-26T03:12:00.171Z,89.47
2018-03-26T03:14:27.579Z,86.67
2018-03-26T03:16:54.990Z,85.50
2018-03-26T03:19:23.192Z,90.43
2018-03-26T03:21:50.603Z,89.37
2018-03-26T03:24:18.029Z,91.83
2018-03-26T03:26:45.506Z,88.93
2018-03-26T03:29:12.901Z,84.27
2018-03-26T03:31:40.328Z,104.17
2018-03-26T03:34:07.736Z,88.70
2018-03-26T03:36:35.147Z,95.03
2018-03-26T03:39:03.386Z,92.13
2018-03-26T03:41:30.797Z,95.30
2018-03-26T03:43:58.977Z,92.70
2018-03-26T03:46:26.382Z,95.13
2018-03-26T03:48:53.847Z,92.97
2018-03-26T03:51:21.284Z,93.17
2018-03-26T03:53:48.783Z,103.80
2018-03-26T03:56:16.202Z,101.47
2018-03-26T03:58:43.635Z,94.37
2018-03-26T04:01:11.054Z,106.40
2018-03-26T04:03:38.565Z,97.77
2018-03-26T04:06:06.046Z,91.13
2018-03-26T04:08:33.478Z,98.47
2018-03-26T04:11:01.673Z,94.60
2018-03-26T04:13:29.094Z,104.07
2018-03-26T04:15:56.526Z,106.90
2018-03-26T04:18:23.938Z,109.97
2018-03-26T04:20:51.363Z,110.17
2018-03-26T04:23:18.784Z,108.17
2018-03-26T04:25:47.018Z,120.93
2018-03-26T04:28:16.098Z,106.43
2018-03-26T04:30:45.003Z,109.73
2018-03-26T04:33:12.417Z,113.67
2018-03-26T04:35:39.835Z,124.47
2018-03-26T04:38:08.026Z,113.50
2018-03-26T04:40:36.326Z,107.43
2018-03-26T04:43:04.544Z,116.47
2018-03-26T04:45:31.947Z,119.17
2018-03-26T04:47:59.384Z,115.27
2018-03-26T04:50:26.800Z,113.93
2018-03-26T04:52:54.238Z,113.17
2018-03-26T04:55:22.428Z,123.53
2018-03-26T04:57:49.917Z,121.67
2018-03-26T05:00:17.355Z,124.10
2018-03-26T05:02:44.834Z,128.53
2018-03-26T05:05:12.256Z,129.70
2018-03-26T05:07:39.668Z,124.53
2018-03-26T05:10:07.098Z,121.73
2018-03-26T05:12:35.294Z,134.30
2018-03-26T05:15:03.514Z,123.20
2018-03-26T05:17:30.986Z,127.67
2018-03-26T05:19:58.455Z,126.63
2018-03-26T05:22:25.865Z,134.93
2018-03-26T05:24:54.055Z,130.10
2018-03-26T05:27:21.587Z,124.97
2018-03-26T05:29:49.055Z,135.47
2018-03-26T05:32:17.430Z,137.67
2018-03-26T05:34:44.863Z,123.20
2018-03-26T05:37:13.110Z,126.53
2018-03-26T05:39:40.547Z,136.67
2018-03-26T05:42:07.985Z,127.73
2018-03-26T05:44:36.155Z,126.23
2018-03-26T05:47:03.661Z,149.97
2018-03-26T05:49:31.145Z,133.40
2018-03-26T05:51:58.607Z,132.40
2018-03-26T05:54:26.018Z,142.23
2018-03-26T05:56:54.210Z,142.00
2018-03-26T05:59:21.634Z,138.20
2018-03-26T06:01:49.050Z,133.57
2018-03-26T06:04:16.461Z,138.33
2018-03-26T06:06:43.882Z,133.37
2018-03-26T06:09:11.358Z,138.00
2018-03-26T06:11:38.780Z,132.63
2018-03-26T06:14:06.294Z,134.93
2018-03-26T06:16:34.462Z,131.73
2018-03-26T06:19:01.932Z,142.67
2018-03-26T06:21:29.306Z,149.80
2018-03-26T06:23:56.725Z,140.43
2018-03-26T06:26:24.142Z,141.33
2018-03-26T06:28:51.617Z,147.83
2018-03-26T06:31:19.824Z,139.77
2018-03-26T06:33:48.202Z,142.73
2018-03-26T06:36:21.370Z,137.30
2018-03-26T06:39:04.431Z,141.30
2018-03-26T06:41:32.022Z,147.57
2018-03-26T06:43:59.431Z,151.20
2018-03-26T06:46:26.846Z,149.00
2018-03-26T06:48:54.270Z,148.07
2018-03-26T06:51:21.689Z,152.45
2018-03-26T06:53:49.106Z,145.63
2018-03-26T06:56:16.532Z,157.93
2018-03-26T06:58:43.943Z,157.40
2018-03-26T07:01:11.378Z,148.70
2018-03-26T07:03:38.815Z,160.17
2018-03-26T07:06:06.225Z,147.77
2018-03-26T07:08:33.726Z,147.63
2018-03-26T07:11:01.936Z,157.40
2018-03-26T07:13:29.366Z,145.87
2018-03-26T07:15:56.819Z,149.93
2018-03-26T07:18:24.242Z,149.30
2018-03-26T07:20:51.702Z,150.67
2018-03-26T07:23:20.003Z,151.70
2018-03-26T07:25:47.419Z,142.20
2018-03-26T07:28:14.838Z,145.93
2018-03-26T07:30:42.258Z,144.90
2018-03-26T07:33:09.798Z,136.97
2018-03-26T07:35:37.249Z,144.20
2018-03-26T07:38:04.688Z,143.60
2018-03-26T07:40:32.874Z,143.43
2018-03-26T07:43:01.062Z,145.13
2018-03-26T07:45:29.251Z,136.77
2018-03-26T07:47:57.446Z,152.80
2018-03-26T07:50:25.618Z,151.37
2018-03-26T07:52:53.034Z,149.20
2018-03-26T07:55:20.459Z,164.47
2018-03-26T07:57:48.662Z,141.57
2018-03-26T08:00:16.070Z,141.43
2018-03-26T08:02:43.494Z,130.97
2018-03-26T08:05:10.926Z,142.03
2018-03-26T08:07:38.458Z,147.13
2018-03-26T08:10:05.874Z,138.02
2018-03-26T08:12:33.292Z,142.30
2018-03-26T08:15:00.952Z,141.73
2018-03-26T08:17:29.134Z,123.40
2018-03-26T08:19:56.544Z,118.67
2018-03-26T08:22:24.071Z,137.17
2018-03-26T08:24:51.485Z,115.57
2018-03-26T08:27:20.643Z,112.20
2018-03-26T08:29:48.122Z,106.87
2018-03-26T08:32:15.538Z,107.90
2018-03-26T08:34:42.970Z,104.43
2018-03-26T08:37:10.416Z,109.17
2018-03-26T08:39:37.831Z,113.67
2018-03-26T08:42:05.421Z,112.87
2018-03-26T08:44:32.837Z,105.00
2018-03-26T08:47:00.246Z,119.47
2018-03-26T08:49:27.681Z,122.20
2018-03-26T08:51:55.132Z,102.03
2018-03-26T08:54:22.616Z,108.50
2018-03-26T08:56:51.606Z,102.68
2018-03-26T08:59:19.070Z,120.77
2018-03-26T09:01:46.425Z,119.20
2018-03-26T09:04:13.901Z,114.23
2018-03-26T09:06:41.388Z,100.53
2018-03-26T09:09:08.852Z,109.93
2018-03-26T09:11:36.266Z,114.57
2018-03-26T09:14:03.779Z,116.63
2018-03-26T09:16:31.203Z,100.47
2018-03-26T09:18:58.722Z,104.67
2018-03-26T09:21:26.139Z,97.67
2018-03-26T09:23:53.664Z,101.33
2018-03-26T09:26:22.015Z,93.80
2018-03-26T09:28:49.522Z,98.77
2018-03-26T09:31:16.939Z,93.90
2018-03-26T09:33:44.350Z,91.00
2018-03-26T09:36:11.758Z,82.00
2018-03-26T09:38:39.173Z,82.47
2018-03-26T09:41:06.705Z,84.23
2018-03-26T09:43:34.226Z,83.15
2018-03-26T09:46:01.700Z,78.77
2018-03-26T09:48:29.176Z,76.23
2018-03-26T09:50:56.570Z,89.93
2018-03-26T09:53:24.004Z,91.07
2018-03-26T09:55:52.606Z,89.37
2018-03-26T09:58:20.026Z,86.30
2018-03-26T10:00:48.189Z,88.93
2018-03-26T10:03:15.594Z,86.83
2018-03-26T10:05:43.792Z,93.83
2018-03-26T10:08:11.995Z,82.20
2018-03-26T10:10:39.464Z,93.12
2018-03-26T10:13:06.904Z,81.80
2018-03-26T10:15:35.114Z,71.73
2018-03-26T10:18:02.613Z,80.70
2018-03-26T10:20:30.031Z,82.47
2018-03-26T10:22:57.519Z,79.97
2018-03-26T10:25:24.993Z,74.70
2018-03-26T10:27:52.471Z,79.73
2018-03-26T10:30:19.888Z,83.73
2018-03-26T10:32:48.918Z,72.00
2018-03-26T10:35:17.125Z,69.67
2018-03-26T10:37:44.542Z,64.57
2018-03-26T10:40:12.001Z,63.20
2018-03-26T10:42:39.431Z,58.60
2018-03-26T10:45:06.850Z,48.17
2018-03-26T10:47:34.263Z,48.33
2018-03-26T10:50:01.731Z,42.70
2018-03-26T10:52:29.886Z,63.33
2018-03-26T10:54:58.066Z,52.93
2018-03-26T10:57:25.570Z,52.77
2018-03-26T10:59:52.992Z,64.93
2018-03-26T11:02:20.427Z,51.70
2018-03-26T11:04:47.849Z,50.77
2018-03-26T11:07:16.063Z,47.30
2018-03-26T11:09:43.485Z,49.30
2018-03-26T11:12:10.923Z,67.83
2018-03-26T11:14:38.356Z,50.23
2018-03-26T11:17:06.548Z,41.03
2018-03-26T11:19:33.966Z,34.10
2018-03-26T11:22:01.482Z,39.80
2018-03-26T11:24:28.891Z,42.43
2018-03-26T11:26:56.322Z,35.07
2018-03-26T11:29:23.718Z,43.07
2018-03-26T11:31:51.160Z,37.10
2018-03-26T11:34:18.642Z,38.20
2018-03-26T11:36:46.070Z,49.67
2018-03-26T11:39:14.258Z,39.50
2018-03-26T11:41:42.495Z,48.40
2018-03-26T11:44:09.972Z,51.50
2018-03-26T11:46:37.446Z,47.70
2018-03-26T11:49:04.868Z,44.50
2018-03-26T11:51:32.300Z,40.60
2018-03-26T11:54:00.534Z,43.00
2018-03-26T11:56:28.701Z,39.53
2018-03-26T11:58:56.906Z,35.40
2018-03-26T12:01:24.329Z,44.40
2018-03-26T12:03:52.520Z,41.73
2018-03-26T12:06:20.715Z,38.97
2018-03-26T12:08:48.918Z,43.00
2018-03-26T12:11:17.102Z,49.87
2018-03-26T12:13:45.289Z,41.17
2018-03-26T12:16:13.491Z,44.10
2018-03-26T12:18:40.935Z,48.87
2018-03-26T12:21:08.436Z,53.83
2018-03-26T12:23:47.695Z,47.63
2018-03-26T12:26:15.091Z,50.90
2018-03-26T12:28:54.403Z,51.73
2018-03-26T12:31:21.850Z,58.60
2018-03-26T12:34:00.976Z,58.47
2018-03-26T12:36:28.390Z,57.70
2018-03-26T12:38:55.941Z,53.50
2018-03-26T12:41:25.040Z,60.97
2018-03-26T12:43:52.453Z,57.13
2018-03-26T12:46:31.782Z,60.37
2018-03-26T12:48:59.182Z,49.57
2018-03-26T12:51:38.391Z,52.60
2018-03-26T12:54:05.855Z,54.00
2018-03-26T12:56:33.314Z,60.37
2018-03-26T12:59:00.771Z,48.77
2018-03-26T13:01:40.137Z,49.30
2018-03-26T13:04:07.568Z,47.30
2018-03-26T13:06:35.746Z,52.53
2018-03-26T13:09:03.158Z,46.90
2018-03-26T13:11:30.578Z,45.63
2018-03-26T13:13:57.982Z,40.57
2018-03-26T13:16:25.395Z,33.00
2018-03-26T13:18:52.924Z,40.50
2018-03-26T13:21:20.414Z,33.40
2018-03-26T13:23:47.834Z,40.50
2018-03-26T13:26:16.015Z,34.40
2018-03-26T13:28:44.207Z,40.27
2018-03-26T13:31:12.391Z,40.67
2018-03-26T13:33:40.586Z,40.00
2018-03-26T13:36:08.006Z,36.13
2018-03-26T13:38:35.481Z,32.60
2018-03-26T13:41:02.901Z,58.13
2018-03-26T13:43:30.383Z,38.47
2018-03-26T13:45:57.791Z,36.33
2018-03-26T13:48:25.210Z,35.70
2018-03-26T13:50:52.626Z,40.00
2018-03-26T13:53:20.049Z,29.13
2018-03-26T13:55:47.532Z,28.53
2018-03-26T13:58:14.982Z,32.47
2018-03-26T14:00:42.454Z,34.77
2018-03-26T14:03:09.891Z,31.97
2018-03-26T14:05:38.420Z,33.57
2018-03-26T14:08:06.574Z,31.37
2018-03-26T14:10:46.774Z,32.60
2018-03-26T14:13:25.974Z,24.80
2018-03-26T14:16:05.598Z,29.03
2018-03-26T14:18:33.022Z,29.43
2018-03-26T14:21:01.219Z,27.03
2018-03-26T14:23:28.697Z,35.97
2018-03-26T14:25:56.857Z,28.03
2018-03-26T14:28:25.957Z,25.83
2018-03-26T14:30:54.138Z,26.47
2018-03-26T14:33:21.558Z,30.00
2018-03-26T14:35:49.618Z,41.07
2018-03-26T14:38:17.030Z,27.03
2018-03-26T14:40:45.128Z,30.10
2018-03-26T14:43:12.591Z,45.77
2018-03-26T14:45:40.043Z,31.27
2018-03-26T14:48:07.526Z,34.50
2018-03-26T14:50:35.035Z,26.77
2018-03-26T14:53:02.463Z,25.37
2018-03-26T14:55:30.711Z,29.63
2018-03-26T14:57:58.122Z,25.10
2018-03-26T15:00:26.903Z,20.85
2018-03-26T15:02:56.037Z,27.60
2018-03-26T15:05:23.459Z,23.13
2018-03-26T15:07:50.971Z,24.50
2018-03-26T15:10:18.382Z,32.07
2018-03-26T15:12:45.803Z,23.93
2018-03-26T15:15:13.208Z,29.93
2018-03-26T15:17:40.647Z,21.40
2018-03-26T15:20:08.074Z,22.97
2018-03-26T15:22:35.492Z,20.40
2018-03-26T15:25:02.909Z,19.00
2018-03-26T15:27:30.461Z,19.07
2018-03-26T15:29:58.570Z,21.47
2018-03-26T15:32:26.486Z,17.45
2018-03-26T15:34:53.898Z,21.37
2018-03-26T15:37:21.365Z,23.03
2018-03-26T15:39:48.733Z,21.80
2018-03-26T15:42:16.155Z,24.00
2018-03-26T15:44:43.578Z,25.30
2018-03-26T15:47:11.200Z,21.73
2018-03-26T15:49:38.596Z,25.87
2018-03-26T15:52:06.002Z,22.33
2018-03-26T15:54:33.416Z,27.83
2018-03-26T15:57:00.924Z,24.43
2018-03-26T15:59:28.379Z,24.73
2018-03-26T16:01:56.239Z,23.70
2018-03-26T16:04:24.425Z,25.83
2018-03-26T16:06:52.112Z,25.47
2018-03-26T16:09:19.529Z,26.37
2018-03-26T16:11:46.952Z,19.20
2018-03-26T16:14:14.389Z,21.93
2018-03-26T16:16:41.795Z,27.47
2018-03-26T16:19:09.226Z,29.47
2018-03-26T16:21:37.441Z,26.50
2018-03-26T16:24:04.856Z,25.73
2018-03-26T16:26:32.262Z,31.07
2018-03-26T16:28:59.690Z,25.13
2018-03-26T16:31:28.039Z,24.57
2018-03-26T16:33:56.225Z,26.47
2018-03-26T16:36:23.703Z,26.60
2018-03-26T16:38:51.165Z,29.27
2018-03-26T16:41:30.616Z,28.43
2018-03-26T16:43:58.076Z,26.90
2018-03-26T16:46:25.567Z,25.47
2018-03-26T16:48:53.011Z,33.57
2018-03-26T16:51:20.433Z,34.07
2018-03-26T16:53:47.854Z,31.60
2018-03-26T16:56:15.319Z,27.87
2018-03-26T16:58:42.758Z,30.53
2018-03-26T17:01:10.271Z,29.30
2018-03-26T17:03:37.727Z,35.83
2018-03-26T17:06:05.197Z,26.33
2018-03-26T17:08:32.606Z,30.07
2018-03-26T17:11:00.052Z,25.23
2018-03-26T17:13:28.727Z,27.15
2018-03-26T17:15:56.168Z,25.23
2018-03-26T17:18:24.401Z,29.20
2018-03-26T17:20:51.857Z,23.53
2018-03-26T17:23:19.260Z,24.10
2018-03-26T17:25:46.687Z,29.23
2018-03-26T17:28:14.153Z,30.53
2018-03-26T17:30:41.575Z,26.13
2018-03-26T17:33:08.985Z,24.27
2018-03-26T17:35:36.406Z,20.13
2018-03-26T17:38:03.850Z,27.00
2018-03-26T17:40:31.303Z,24.10
2018-03-26T17:42:58.730Z,24.80
2018-03-26T17:45:26.910Z,23.83
2018-03-26T17:47:54.340Z,20.97
2018-03-26T17:50:21.782Z,24.07
2018-03-26T17:52:49.967Z,23.60
2018-03-26T17:55:17.385Z,25.00
2018-03-26T17:57:44.848Z,26.03
2018-03-26T18:00:12.293Z,26.27
2018-03-26T18:02:39.763Z,30.77
2018-03-26T18:05:07.172Z,27.47
2018-03-26T18:07:34.687Z,26.67
2018-03-26T18:10:02.940Z,25.13
2018-03-26T18:12:30.334Z,23.83
2018-03-26T18:14:58.736Z,26.00
2018-03-26T18:17:26.193Z,25.23
2018-03-26T18:19:54.350Z,24.90
2018-03-26T18:22:21.784Z,25.30
2018-03-26T18:24:49.223Z,25.03
2018-03-26T18:27:16.646Z,35.30
2018-03-26T18:29:44.149Z,33.10
2018-03-26T18:32:11.753Z,26.23
2018-03-26T18:34:39.230Z,29.95
2018-03-26T18:37:06.662Z,21.60
2018-03-26T18:39:34.854Z,26.43
2018-03-26T18:42:02.287Z,20.77
2018-03-26T18:44:30.490Z,25.30
2018-03-26T18:46:59.625Z,26.23
2018-03-26T18:49:27.066Z,23.83
2018-03-26T18:51:55.284Z,31.90
2018-03-26T18:54:22.740Z,23.53
2018-03-26T18:56:50.151Z,29.00
2018-03-26T18:59:17.572Z,24.37
2018-03-26T19:01:44.986Z,25.30
2018-03-26T19:04:12.418Z,28.27
2018-03-26T19:06:39.891Z,41.13
2018-03-26T19:09:07.323Z,27.43
2018-03-26T19:11:35.494Z,30.73
2018-03-26T19:14:03.085Z,30.10
2018-03-26T19:16:30.439Z,28.67
2018-03-26T19:18:59.542Z,33.33
2018-03-26T19:21:26.959Z,30.60
2018-03-26T19:23:54.394Z,39.23
2018-03-26T19:26:22.584Z,33.07
2018-03-26T19:28:50.769Z,34.27
2018-03-26T19:31:18.977Z,37.67
2018-03-26T19:33:46.391Z,38.23
2018-03-26T19:36:13.812Z,36.67
2018-03-26T19:38:41.213Z,37.10
2018-03-26T19:41:08.630Z,41.33
2018-03-26T19:43:36.118Z,42.23
2018-03-26T19:46:04.301Z,42.13
2018-03-26T19:48:31.764Z,47.67
2018-03-26T19:51:00.862Z,50.30
2018-03-26T19:53:28.348Z,50.67
2018-03-26T19:55:55.766Z,46.00
2018-03-26T19:58:23.215Z,44.20
2018-03-26T20:00:50.653Z,47.23
2018-03-26T20:03:18.065Z,53.67
2018-03-26T20:05:45.602Z,43.85
2018-03-26T20:08:13.030Z,43.17
2018-03-26T20:10:41.321Z,44.07
2018-03-26T20:13:08.690Z,45.80
2018-03-26T20:15:36.863Z,40.97
2018-03-26T20:18:05.106Z,44.70
2018-03-26T20:20:32.530Z,47.73
2018-03-26T20:23:01.522Z,56.45
2018-03-26T20:25:28.950Z,50.07
2018-03-26T20:27:56.365Z,43.63
2018-03-26T20:30:24.584Z,52.20
2018-03-26T20:32:52.008Z,48.87
2018-03-26T20:35:19.490Z,49.30
2018-03-26T20:37:47.678Z,53.72
2018-03-26T20:40:15.867Z,55.10
2018-03-26T20:42:43.294Z,49.87
2018-03-26T20:45:10.746Z,62.50
2018-03-26T20:47:38.158Z,53.15
2018-03-26T20:50:06.382Z,50.73
2018-03-26T20:52:34.549Z,56.97
2018-03-26T20:55:02.747Z,54.13
2018-03-26T20:57:31.100Z,53.83
2018-03-26T20:59:58.610Z,52.13
2018-03-26T21:02:26.081Z,53.90
2018-03-26T21:04:53.547Z,51.37
2018-03-26T21:07:21.020Z,50.30
2018-03-26T21:09:48.488Z,53.70
2018-03-26T21:12:15.955Z,58.73
2018-03-26T21:14:43.419Z,53.13
2018-03-26T21:17:11.594Z,52.93
2018-03-26T21:19:40.744Z,52.17
2018-03-26T21:22:08.164Z,49.17
2018-03-26T21:24:36.396Z,52.63
2018-03-26T21:27:03.786Z,51.47
2018-03-26T21:29:32.502Z,49.00
2018-03-26T21:31:59.934Z,56.93
2018-03-26T21:34:27.350Z,56.73
2018-03-26T21:36:55.545Z,54.83
2018-03-26T21:39:23.714Z,51.47
2018-03-26T21:41:51.898Z,57.50
2018-03-26T21:44:19.314Z,57.20
2018-03-26T21:46:46.780Z,48.70
2018-03-26T21:49:14.209Z,45.83
2018-03-26T21:51:41.634Z,48.43
2018-03-26T21:54:09.088Z,53.25
2018-03-26T21:56:36.502Z,50.33
2018-03-26T21:59:04.014Z,51.43
2018-03-26T22:01:32.985Z,53.78
2018-03-26T22:04:02.090Z,49.40
2018-03-26T22:06:30.272Z,49.13
2018-03-26T22:08:57.778Z,49.67
2018-03-26T22:11:25.254Z,48.53
2018-03-26T22:13:53.414Z,51.07
2018-03-26T22:16:21.623Z,58.47
2018-03-26T22:18:49.041Z,61.97
2018-03-26T22:21:16.569Z,55.37
2018-03-26T22:23:44.027Z,56.60
2018-03-26T22:26:11.456Z,63.27
2018-03-26T22:28:38.899Z,54.77
2018-03-26T22:31:06.310Z,55.20
2018-03-26T22:33:33.744Z,57.65
2018-03-26T22:36:01.154Z,49.00
2018-03-26T22:38:28.570Z,58.93
2018-03-26T22:40:56.002Z,53.63
2018-03-26T22:43:23.463Z,46.67
2018-03-26T22:45:50.939Z,60.83
2018-03-26T22:48:18.354Z,53.10
2018-03-26T22:50:46.614Z,53.57
2018-03-26T22:53:14.091Z,54.50
2018-03-26T22:55:41.531Z,52.10
2018-03-26T22:58:08.970Z,52.57
2018-03-26T23:00:37.172Z,54.40
2018-03-26T23:03:05.355Z,60.87
2018-03-26T23:05:34.139Z,51.47
2018-03-26T23:08:01.550Z,50.07
2018-03-26T23:10:29.019Z,53.13
2018-03-26T23:12:56.437Z,57.60
2018-03-26T23:15:23.951Z,48.50
2018-03-26T23:17:51.361Z,51.50
2018-03-26T23:20:18.794Z,51.80
2018-03-26T23:22:48.206Z,51.03
2018-03-26T23:25:15.633Z,58.47
2018-03-26T23:27:43.133Z,50.00
2018-03-26T23:30:10.556Z,59.23
2018-03-26T23:32:38.108Z,49.93
2018-03-26T23:35:05.534Z,54.03
2018-03-26T23:37:34.647Z,47.38
2018-03-26T23:40:02.124Z,47.63
2018-03-26T23:42:29.591Z,45.10
2018-03-26T23:44:57.059Z,49.55
2018-03-26T23:47:24.465Z,52.27
2018-03-26T23:49:52.015Z,48.30
2018-03-26T23:52:19.435Z,56.50
2018-03-26T23:54:46.865Z,54.03
2018-03-26T23:57:14.310Z,52.00
2018-03-26T23:59:41.768Z,55.63
